Latest Weather Observations for Combienbar

IDV60801

Issued at 5:22 pm EST Sunday 18 August 2019 (issued every 10 minutes, with the page automatically refreshed every 10 minutes)

About weather observations | Map of weather stations | Latest weather observations for VIC | Other Formats
Station Details ID: 084143 Name: COMBIENBAR AWS Lat: -37.34 Lon: 149.02 Height: 640.0 m
Data from the previous 72 hours. | See also: Recent months at Combienbar
Date/Time
EST
Temp
°C
App
Temp
°C
Dew
Point
°C
Rel
Hum
%
Delta-T
°C
Wind Press
QNH
hPa
Press
MSL
hPa
Rain since
9am
mm
Dir  Spd
km/h
Gust
km/h
Spd
kts
Gust
kts
18/05:00pm 15.5 12.0 -1.5 31 7.3 N 7 24 4 13 1005.3 1005.4 0.0
18/04:30pm 16.3 12.4 -1.7 29 7.7 N 9 39 5 21 1005.7 1005.8 0.0
18/04:00pm 17.6 13.6 0.3 31 7.8 NNW 11 20 6 11 1006.3 1006.3 0.0
18/03:30pm 18.9 16.7 3.1 35 7.6 NNE 4 11 2 6 1006.5 1006.5 0.0
18/03:00pm 18.8 13.9 1.8 32 8.0 N 17 41 9 22 1006.8 1006.9 0.0
18/02:30pm 19.5 17.1 5.2 39 7.2 NNE 7 17 4 9 1007.1 1007.2 0.0
18/02:00pm 17.5 13.7 4.1 41 6.5 NNE 13 26 7 14 1007.5 1007.6 0.0
18/01:30pm 18.4 14.0 4.9 41 6.7 N 17 37 9 20 1008.2 1008.3 0.0
18/01:00pm 16.5 11.4 3.2 41 6.3 N 19 39 10 21 1008.7 1008.8 0.0
18/12:30pm 16.0 10.7 2.8 41 6.2 N 20 48 11 26 1009.0 1009.1 0.0
18/12:00pm 14.7 8.1 2.3 43 5.7 N 26 52 14 28 1009.8 1009.9 0.0
18/11:30am 14.9 7.8 1.1 39 6.2 N 28 50 15 27 1010.5 1010.6 0.0
18/11:24am 14.7 8.3 0.9 39 6.2 NNW 24 50 13 27 1010.6 1010.8 0.0
18/11:00am 13.3 9.8 1.0 43 5.4 NNW 9 20 5 11 1011.3 1011.4 0.0
18/10:30am 11.8 10.0 3.6 57 3.8 NE 2 7 1 4 1012.3 1012.5 0.0
18/10:00am 11.3 8.5 2.3 54 4.0 NE 6 9 3 5 1013.1 1013.2 0.0
18/09:30am 11.3 8.8 1.5 51 4.3 NNE 4 11 2 6 1013.7 1013.9 0.0
18/09:00am 13.1 8.8 -1.6 36 6.1 N 11 24 6 13 1013.7 1013.9 0.0
18/08:30am 12.4 7.4 -1.5 38 5.8 NNW 15 33 8 18 1013.6 1013.8 0.0
18/08:00am 11.7 7.9 -1.1 41 5.3 N 9 20 5 11 1013.5 1013.7 0.0
18/07:30am 11.8 7.5 -1.3 40 5.4 N 11 26 6 14 1013.7 1013.9 0.0
18/07:00am 11.2 6.8 -2.2 39 5.4 NNW 11 33 6 18 1013.7 1013.9 0.0
18/06:30am 10.9 6.2 -2.1 40 5.2 NNW 13 28 7 15 1013.6 1013.8 0.0
18/06:00am 10.6 6.3 -1.8 42 5.0 NW 11 32 6 17 1013.6 1013.8 0.0
18/05:30am 10.4 4.6 -1.6 43 4.9 NW 19 52 10 28 1013.4 1013.6 0.0
18/05:00am 9.2 5.4 -0.4 51 3.9 NNW 9 43 5 23 1013.3 1013.5 0.0
18/04:30am 8.7 5.7 0.9 58 3.3 WNW 6 13 3 7 1013.9 1014.1 0.0
18/04:00am 8.3 5.4 1.7 63 2.8 WNW 6 19 3 10 1013.7 1013.9 0.0
18/03:30am 8.1 5.2 2.4 67 2.5 SSE 7 30 4 16 1013.5 1013.7 0.0
18/03:00am 7.0 5.1 3.1 76 1.7 SSW 2 6 1 3 1014.3 1014.5 0.0
18/02:30am 7.2 4.6 3.3 76 1.7 E 6 13 3 7 1015.1 1015.3 0.0
18/02:00am 7.4 4.7 3.8 78 1.6 NE 7 22 4 12 1015.7 1015.9 0.0
18/01:30am 6.9 5.2 4.2 83 1.2 SE 2 6 1 3 1016.2 1016.4 0.0
18/01:00am 6.7 5.0 4.2 84 1.1 NNE 2 9 1 5 1016.4 1016.6 0.0
18/12:30am 7.1 5.6 4.8 85 1.0 NNW 2 7 1 4 1016.6 1016.8 0.0
18/12:00am 7.3 4.9 5.1 86 1.0 NNE 7 17 4 9 1016.7 1016.9 0.0
 
Date/Time
EST
Temp
°C
App
Temp
°C
Dew
Point
°C
Rel
Hum
%
Delta-T
°C
Wind Press
QNH
hPa
Press
MSL
hPa
Rain since
9am
mm
Dir  Spd
km/h
Gust
km/h
Spd
kts
Gust
kts
17/11:30pm 7.0 3.8 5.0 87 0.9 NNE 11 19 6 10 1016.9 1017.1 0.0
17/11:00pm 7.0 4.5 5.0 87 0.9 NNE 7 19 4 10 1017.6 1017.9 0.0
17/10:30pm 7.0 4.7 5.0 87 0.9 NNE 6 13 3 7 1018.2 1018.4 0.0
17/10:00pm 7.0 4.2 5.0 87 0.9 NNE 9 13 5 7 1018.4 1018.6 0.0
17/09:30pm 7.2 5.3 4.9 85 1.1 N 4 13 2 7 1018.6 1018.9 0.0
17/09:00pm 7.2 5.3 5.0 86 1.0 NNE 4 7 2 4 1018.8 1019.1 0.0
17/08:30pm 7.4 5.9 5.0 85 1.1 N 2 6 1 3 1019.1 1019.4 0.0
17/08:00pm 7.3 6.2 5.1 86 1.0 CALM 0 0 0 0 1019.4 1019.7 0.0
17/07:30pm 7.4 5.7 5.7 89 0.8 NNE 4 7 2 4 1019.4 1019.7 0.0
17/07:00pm 7.6 6.0 6.2 91 0.7 NNE 4 7 2 4 1019.4 1019.7 0.0
17/06:30pm 7.7 6.9 6.5 92 0.6 CALM 0 0 0 0 1019.7 1019.9 0.0
17/06:00pm 8.3 7.6 6.8 90 0.7 CALM 0 0 0 0 1019.3 1019.6 0.0
17/05:30pm 8.9 8.2 6.9 87 1.0 CALM 0 0 0 0 1019.1 1019.4 0.0
17/05:00pm 9.7 9.1 7.5 86 1.1 CALM 0 0 0 0 1018.9 1019.2 0.0
17/04:30pm 10.3 9.7 7.5 83 1.4 CALM 0 0 0 0 1018.9 1019.2 0.0
17/04:00pm 10.7 10.1 7.6 81 1.5 CALM 0 0 0 0 1019.1 1019.4 0.0
17/03:30pm 10.8 10.2 7.3 79 1.7 CALM 0 0 0 0 1019.2 1019.5 0.0
17/03:00pm 10.5 9.8 6.8 78 1.8 CALM 0 0 0 0 1019.0 1019.3 0.0
17/02:30pm 10.6 10.0 7.3 80 1.6 CALM 0 0 0 0 1019.3 1019.6 0.0
17/02:00pm 10.4 9.7 6.9 79 1.7 CALM 0 2 0 1 1019.4 1019.7 0.0
17/01:30pm 10.4 9.8 7.3 81 1.5 CALM 0 0 0 0 1019.7 1019.9 0.0
17/01:00pm 9.6 8.9 7.0 84 1.3 CALM 0 0 0 0 1020.0 1020.3 0.0
17/12:30pm 9.6 9.0 7.4 86 1.1 CALM 0 0 0 0 1020.2 1020.5 0.0
17/12:00pm 9.9 9.3 7.5 85 1.2 CALM 0 2 0 1 1020.6 1020.9 0.0
17/11:30am 8.5 7.8 7.0 90 0.7 CALM 0 0 0 0 1020.8 1021.1 0.0
17/11:00am 8.1 7.4 6.9 92 0.6 CALM 0 0 0 0 1020.9 1021.2 0.0
17/10:30am 8.0 7.2 6.6 91 0.7 CALM 0 0 0 0 1020.8 1021.1 0.0
17/10:00am 7.7 6.9 6.5 92 0.6 CALM 0 0 0 0 1020.7 1021.0 0.0
17/09:30am 7.3 6.4 5.9 91 0.7 CALM 0 2 0 1 1020.6 1020.9 0.0
17/09:00am 7.1 5.7 5.7 91 0.6 SSW 2 7 1 4 1020.4 1020.7 0.6
17/08:30am 6.4 5.0 5.5 94 0.4 SW 2 6 1 3 1020.3 1020.6 0.6
17/08:00am 6.4 4.9 5.2 92 0.5 SSW 2 6 1 3 1019.9 1020.2 0.6
17/07:30am 6.0 4.8 4.8 92 0.5 CALM 0 0 0 0 1019.7 1019.9 0.6
17/07:00am 6.3 4.7 4.3 87 0.9 SW 2 4 1 2 1018.9 1019.2 0.6
17/06:30am 6.6 4.2 4.4 86 1.0 SSW 6 13 3 7 1018.4 1018.6 0.6
17/06:00am 6.5 4.1 4.3 86 1.0 SW 6 15 3 8 1018.0 1018.2 0.6
17/05:30am 6.4 4.0 4.2 86 1.0 WSW 6 11 3 6 1017.6 1017.9 0.6
17/05:00am 6.2 4.2 4.2 87 0.9 SSW 4 11 2 6 1017.4 1017.7 0.6
17/04:30am 6.3 3.7 4.0 85 1.0 SW 7 15 4 8 1017.2 1017.5 0.6
17/04:00am 6.3 3.2 3.8 84 1.1 SW 9 20 5 11 1016.8 1017.0 0.6
17/03:30am 6.2 3.1 3.7 84 1.1 SW 9 19 5 10 1016.4 1016.6 0.6
17/03:00am 6.1 2.7 3.8 85 1.0 SW 11 19 6 10 1016.4 1016.6 0.6
17/02:30am 6.0 3.3 3.5 84 1.1 SW 7 13 4 7 1016.5 1016.7 0.6
17/02:00am 6.0 3.3 3.5 84 1.1 SW 7 20 4 11 1016.3 1016.5 0.6
17/01:30am 5.7 2.2 3.4 85 1.0 SW 11 24 6 13 1016.0 1016.3 0.4
17/01:00am 5.5 3.0 3.7 88 0.8 SW 6 9 3 5 1016.3 1016.5 0.4
17/12:30am 6.9 4.2 2.8 75 1.8 SW 6 11 3 6 1016.3 1016.5 0.2
17/12:00am 6.8 3.9 2.7 75 1.8 SW 7 15 4 8 1016.2 1016.4 0.2
 
Date/Time
EST
Temp
°C
App
Temp
°C
Dew
Point
°C
Rel
Hum
%
Delta-T
°C
Wind Press
QNH
hPa
Press
MSL
hPa
Rain since
9am
mm
Dir  Spd
km/h
Gust
km/h
Spd
kts
Gust
kts
16/11:30pm 7.1 3.8 2.4 72 2.0 SW 9 17 5 9 1016.2 1016.4 0.2
16/11:00pm 7.1 4.4 2.6 73 1.9 SSW 6 9 3 5 1016.0 1016.3 0.2
16/10:30pm 6.6 4.8 3.2 79 1.5 SW 2 7 1 4 1016.2 1016.4 0.2
16/10:00pm 6.7 4.4 3.0 77 1.6 SSW 4 19 2 10 1015.9 1016.2 0.2
16/09:30pm 7.3 5.1 3.4 76 1.7 SSW 4 13 2 7 1015.8 1016.0 0.2
16/09:00pm 7.0 4.8 3.6 79 1.5 SW 4 9 2 5 1015.8 1016.0 0.2
16/08:30pm 7.0 4.6 4.5 84 1.1 SW 6 13 3 7 1015.6 1015.8 0.2
16/08:00pm 7.0 4.1 4.7 85 1.0 SW 9 19 5 10 1015.6 1015.8 0.2
16/07:30pm 10.3 8.0 2.7 59 3.4 SW 4 11 2 6 1014.8 1015.0 0.0
16/07:00pm 10.7 8.5 1.0 51 4.2 W 2 7 1 4 1014.1 1014.3 0.0
16/06:30pm 11.6 7.6 0.4 46 4.8 WNW 11 33 6 18 1013.7 1013.9 0.0
16/06:00pm 12.3 7.8 -0.6 41 5.4 WNW 13 32 7 17 1013.3 1013.5 0.0
16/05:30pm 13.0 9.1 -1.3 37 6.0 W 9 22 5 12 1013.1 1013.2 0.0
16/05:00pm 13.0 9.5 -1.0 38 5.9 W 7 20 4 11 1013.2 1013.3 0.0
16/04:30pm 13.6 10.1 -1.2 36 6.2 WNW 7 17 4 9 1013.3 1013.5 0.0
16/04:00pm 13.5 11.0 1.5 44 5.4 WNW 4 9 2 5 1013.0 1013.1 0.0
16/03:30pm 14.2 12.1 1.8 43 5.6 N 2 7 1 4 1012.6 1012.8 0.0
16/03:00pm 13.3 11.3 2.2 47 5.0 WSW 2 9 1 5 1012.4 1012.6 0.0
16/02:30pm 13.8 12.0 3.6 50 4.8 NE 2 6 1 3 1012.2 1012.4 0.0
16/02:00pm 13.1 10.7 2.1 47 5.0 E 4 7 2 4 1012.4 1012.6 0.0
16/01:30pm 12.7 10.7 4.2 56 4.0 NNE 4 6 2 3 1012.7 1012.9 0.0
16/01:00pm 12.1 9.0 1.1 47 4.8 NNW 7 22 4 12 1013.4 1013.6 0.0
16/12:30pm 12.5 10.1 0.0 42 5.4 ESE 2 6 1 3 1014.0 1014.2 0.0
16/12:00pm 11.4 8.4 0.5 47 4.7 NNW 6 15 3 8 1014.6 1014.8 0.0
16/11:30am 10.3 7.6 0.6 51 4.1 NE 4 6 2 3 1015.5 1015.7 0.0
16/11:00am 10.6 7.9 0.6 50 4.3 NNE 4 17 2 9 1015.9 1016.2 0.0
16/10:30am 11.2 8.4 -0.3 45 4.8 N 4 9 2 5 1016.0 1016.3 0.0
16/10:00am 11.2 8.7 -0.9 43 5.0 N 2 7 1 4 1016.6 1016.8 0.0
16/09:30am 11.1 7.9 -0.4 45 4.8 N 6 11 3 6 1017.0 1017.2 0.0
16/09:00am 11.6 8.5 -2.6 37 5.7 WSW 4 13 2 7 1017.3 1017.6 0.0
16/08:30am 11.0 8.1 -1.1 43 5.0 SW 4 13 2 7 1017.5 1017.8 0.0
16/08:00am 11.3 7.9 -2.1 39 5.4 WSW 6 15 3 8 1017.2 1017.5 0.0
16/07:30am 11.3 8.2 -2.5 38 5.5 NE 4 9 2 5 1016.6 1016.8 0.0
16/07:00am 10.4 7.5 -1.3 44 4.8 S 4 7 2 4 1016.5 1016.7 0.0
16/06:30am 11.0 7.3 -2.8 38 5.5 W 7 17 4 9 1016.3 1016.5 0.0
16/06:00am 10.3 6.0 -2.0 42 4.9 NW 11 22 6 12 1015.8 1016.0 0.0
16/05:30am 9.7 5.7 -1.9 44 4.6 NW 9 28 5 15 1015.5 1015.7 0.0
16/05:00am 9.9 6.5 -2.1 43 4.8 NNE 6 30 3 16 1015.4 1015.6 0.0
16/04:30am 9.6 6.1 -1.7 45 4.5 N 7 30 4 16 1015.8 1016.0 0.0
16/04:00am 9.7 5.1 -1.3 46 4.4 N 13 30 7 16 1015.7 1015.9 0.0
16/03:30am 10.0 6.5 -1.7 44 4.7 NNW 7 19 4 10 1016.3 1016.5 0.0
16/03:00am 9.8 7.6 -1.3 46 4.5 CALM 0 2 0 1 1016.6 1016.8 0.0
16/02:30am 10.3 6.9 -1.7 43 4.8 NW 6 19 3 10 1017.2 1017.5 0.0
16/02:00am 10.5 6.6 -1.5 43 4.9 NW 9 19 5 10 1017.7 1018.0 0.0
16/01:30am 8.7 5.8 -0.9 51 3.9 NNE 4 7 2 4 1018.1 1018.3 0.0
16/01:00am 9.0 6.4 -1.7 47 4.2 NNE 2 6 1 3 1018.4 1018.6 0.0
16/12:30am 10.0 7.0 -2.0 43 4.8 N 4 17 2 9 1018.8 1019.1 0.0
16/12:00am 10.0 7.3 -2.6 41 4.9 NNW 2 13 1 7 1019.1 1019.4 0.0
 
Date/Time
EST
Temp
°C
App
Temp
°C
Dew
Point
°C
Rel
Hum
%
Delta-T
°C
Wind Press
QNH
hPa
Press
MSL
hPa
Rain since
9am
mm
Dir  Spd
km/h
Gust
km/h
Spd
kts
Gust
kts
15/11:30pm 10.8 7.1 -3.3 37 5.5 NW 7 17 4 9 1019.0 1019.3 0.0
15/11:00pm 10.7 7.1 -3.4 37 5.5 WSW 6 15 3 8 1019.4 1019.7 0.0
15/10:30pm 10.9 7.3 -3.9 35 5.7 SW 6 15 3 8 1019.7 1019.9 0.0
15/10:00pm 10.8 7.0 -5.2 32 6.0 WNW 6 13 3 7 1019.9 1020.2 0.0
15/09:30pm 9.5 7.0 -3.7 39 5.0 CALM 0 0 0 0 1019.7 1019.9 0.0
15/09:00pm 8.7 5.8 -1.4 49 4.0 NNE 4 6 2 3 1019.8 1020.0 0.0
15/08:30pm 10.7 7.0 -3.0 38 5.4 NW 7 13 4 7 1020.1 1020.4 0.0
15/08:00pm 11.0 7.8 -3.1 37 5.5 NW 4 13 2 7 1020.3 1020.6 0.0
15/07:30pm 10.9 8.2 -2.5 39 5.3 N 2 9 1 5 1020.6 1020.9 0.0
15/07:00pm 10.9 8.3 -1.8 41 5.1 NW 2 6 1 3 1020.3 1020.6 0.0
15/06:30pm 10.8 7.9 -0.9 44 4.8 W 4 11 2 6 1020.5 1020.8 0.0
15/06:00pm 11.3 8.8 -1.1 42 5.1 WNW 2 7 1 4 1020.3 1020.6 0.0
15/05:30pm 11.3 9.3 0.1 46 4.8 CALM 0 4 0 2 1019.9 1020.2 0.0

Other formats

Comma delimited format used in spreadsheet applications
http://www.bom.gov.au/fwo/IDV60801/IDV60801.94914.axf

JavaScript Object Notation format (JSON) in row-major order
http://www.bom.gov.au/fwo/IDV60801/IDV60801.94914.json

Data quality

Most of these data are generated automatically and are frequently updated. Quality checks on data are not normally performed. It is possible for incorrect values to appear. Refer to information at About Latest Weather Observations and please check the disclaimer before using these data.